createdAt,value
2019-03-03T00:02:06.184Z,93.30
2019-03-03T00:04:35.958Z,93.30
2019-03-03T00:07:06.111Z,92.90
2019-03-03T00:09:36.374Z,93.00
2019-03-03T00:12:06.148Z,92.60
2019-03-03T00:14:35.922Z,92.70
2019-03-03T00:17:05.736Z,92.30
2019-03-03T00:19:35.519Z,92.20
2019-03-03T00:22:05.911Z,92.50
2019-03-03T00:24:35.726Z,92.40
2019-03-03T00:27:05.496Z,92.50
2019-03-03T00:29:36.158Z,92.50
2019-03-03T00:32:05.972Z,92.40
2019-03-03T00:34:35.676Z,92.50
2019-03-03T00:37:22.691Z,92.60
2019-03-03T00:39:54.275Z,92.80
2019-03-03T00:42:41.937Z,93.00
2019-03-03T00:45:14.644Z,93.10
2019-03-03T00:48:03.896Z,93.00
2019-03-03T00:50:38.121Z,93.20
2019-03-03T00:53:12.173Z,93.30
2019-03-03T00:55:43.590Z,93.00
2019-03-03T00:58:15.007Z,93.10
2019-03-03T01:00:52.168Z,92.70
2019-03-03T01:03:27.324Z,92.70
2019-03-03T01:06:01.754Z,92.70
2019-03-03T01:08:48.581Z,92.80
2019-03-03T01:11:35.631Z,92.40
2019-03-03T01:14:07.347Z,91.90
2019-03-03T01:16:55.122Z,91.90
2019-03-03T01:19:32.319Z,91.40
2019-03-03T01:22:13.594Z,91.30
2019-03-03T01:24:44.884Z,90.90
2019-03-03T01:27:14.918Z,90.60
2019-03-03T01:29:44.587Z,90.70
2019-03-03T01:32:14.369Z,90.60
2019-03-03T01:34:44.068Z,90.90
2019-03-03T01:37:13.882Z,91.10
2019-03-03T01:39:44.294Z,91.60
2019-03-03T01:42:14.073Z,91.80
2019-03-03T01:44:43.883Z,92.00
2019-03-03T01:47:14.258Z,92.30
2019-03-03T01:49:44.122Z,92.30
2019-03-03T01:52:13.915Z,92.50
2019-03-03T01:54:44.309Z,92.60
2019-03-03T01:57:14.080Z,92.70
2019-03-03T01:59:43.923Z,92.80
2019-03-03T02:02:14.159Z,92.80
2019-03-03T02:04:43.799Z,92.70
2019-03-03T02:07:13.607Z,92.80
2019-03-03T02:09:43.791Z,92.60
2019-03-03T02:12:13.567Z,92.50
2019-03-03T02:14:43.307Z,92.40
2019-03-03T02:17:14.226Z,92.40
2019-03-03T02:19:44.001Z,92.40
2019-03-03T02:22:13.913Z,92.30
2019-03-03T02:24:43.617Z,92.30
2019-03-03T02:27:13.455Z,92.20
2019-03-03T02:29:43.327Z,92.20
2019-03-03T02:32:13.370Z,92.20
2019-03-03T02:34:43.135Z,92.30
2019-03-03T02:37:13.016Z,92.20
2019-03-03T02:39:43.266Z,92.40
2019-03-03T02:42:13.100Z,92.30
2019-03-03T02:44:42.968Z,92.40
2019-03-03T02:47:13.051Z,92.60
2019-03-03T02:49:42.693Z,92.30
2019-03-03T02:52:12.444Z,92.10
2019-03-03T02:54:42.139Z,91.80
2019-03-03T02:57:11.839Z,91.80
2019-03-03T02:59:42.306Z,91.30
2019-03-03T03:02:13.654Z,91.10
2019-03-03T03:04:43.379Z,91.10
2019-03-03T03:07:14.800Z,91.10
2019-03-03T03:09:55.444Z,91.00
2019-03-03T03:12:30.868Z,91.20
2019-03-03T03:15:02.375Z,90.90
2019-03-03T03:17:33.908Z,91.00
2019-03-03T03:20:20.517Z,91.00
2019-03-03T03:22:57.996Z,90.70
2019-03-03T03:25:32.344Z,90.70
2019-03-03T03:28:03.762Z,90.80
2019-03-03T03:30:47.380Z,91.10
2019-03-03T03:33:24.581Z,91.10
2019-03-03T03:35:56.194Z,91.60
2019-03-03T03:38:33.090Z,91.50
2019-03-03T03:41:10.716Z,91.50
2019-03-03T03:43:42.137Z,91.70
2019-03-03T03:46:17.065Z,91.80
2019-03-03T03:48:51.474Z,91.70
2019-03-03T03:51:32.125Z,91.90
2019-03-03T03:54:06.778Z,92.00
2019-03-03T03:56:47.595Z,92.00
2019-03-03T03:59:19.299Z,91.90
2019-03-03T04:01:50.708Z,92.00
2019-03-03T04:04:22.091Z,92.20
2019-03-03T04:06:54.066Z,92.60
2019-03-03T04:09:25.661Z,92.90
2019-03-03T04:12:07.085Z,93.00
2019-03-03T04:14:39.073Z,93.10
2019-03-03T04:17:13.496Z,93.20
2019-03-03T04:19:45.468Z,93.30
2019-03-03T04:22:33.447Z,93.50
2019-03-03T04:25:20.889Z,93.60
2019-03-03T04:28:04.284Z,93.30
2019-03-03T04:30:36.203Z,93.30
2019-03-03T04:33:24.048Z,93.90
2019-03-03T04:35:55.455Z,93.70
2019-03-03T04:38:26.804Z,94.20
2019-03-03T04:41:14.242Z,94.10
2019-03-03T04:43:49.226Z,93.80
2019-03-03T04:46:24.279Z,93.50
2019-03-03T04:48:58.771Z,93.70
2019-03-03T04:51:42.298Z,93.70
2019-03-03T04:54:29.983Z,94.20
2019-03-03T04:57:13.372Z,94.20
2019-03-03T04:59:50.904Z,94.00
2019-03-03T05:02:31.814Z,93.90
2019-03-03T05:05:17.952Z,94.30
2019-03-03T05:07:49.399Z,94.70
2019-03-03T05:10:30.140Z,94.80
2019-03-03T05:13:10.315Z,94.30
2019-03-03T05:15:50.389Z,94.10
2019-03-03T05:18:23.621Z,94.10
2019-03-03T05:20:53.327Z,93.20
2019-03-03T05:23:23.110Z,93.50
2019-03-03T05:25:52.920Z,93.70
2019-03-03T05:28:23.154Z,93.20
2019-03-03T05:30:52.930Z,92.90
2019-03-03T05:33:22.738Z,93.50
2019-03-03T05:35:53.479Z,93.70
2019-03-03T05:38:23.183Z,94.00
2019-03-03T05:40:52.990Z,93.50
2019-03-03T05:43:23.053Z,93.50
2019-03-03T05:45:52.926Z,94.00
2019-03-03T05:48:22.666Z,93.60
2019-03-03T05:50:52.811Z,93.70
2019-03-03T05:53:22.447Z,93.90
2019-03-03T05:55:52.356Z,93.90
2019-03-03T05:58:22.856Z,93.70
2019-03-03T06:00:52.701Z,93.80
2019-03-03T06:03:22.512Z,94.00
2019-03-03T06:05:52.602Z,94.20
2019-03-03T06:08:22.376Z,93.90
2019-03-03T06:10:52.184Z,94.50
2019-03-03T06:13:22.447Z,94.50
2019-03-03T06:15:52.717Z,94.30
2019-03-03T06:18:22.460Z,94.00
2019-03-03T06:20:52.718Z,94.20
2019-03-03T06:23:22.344Z,94.30
2019-03-03T06:25:52.087Z,94.30
2019-03-03T06:28:21.794Z,94.10
2019-03-03T06:30:51.506Z,94.50
2019-03-03T06:33:21.182Z,94.30
2019-03-03T06:35:52.784Z,94.40
2019-03-03T06:38:22.723Z,94.20
2019-03-03T06:40:52.559Z,94.20
2019-03-03T06:43:22.330Z,94.60
2019-03-03T06:45:51.967Z,94.60
2019-03-03T06:48:21.799Z,94.50
2019-03-03T06:50:52.962Z,94.60
2019-03-03T06:53:23.165Z,94.50
2019-03-03T06:55:53.482Z,94.40
2019-03-03T06:58:23.189Z,94.30
2019-03-03T07:00:52.985Z,94.20
2019-03-03T07:03:23.102Z,94.20
2019-03-03T07:05:53.351Z,94.10
2019-03-03T07:08:23.345Z,94.30
2019-03-03T07:10:53.301Z,94.60
2019-03-03T07:13:23.491Z,93.90
2019-03-03T07:15:53.281Z,93.70
2019-03-03T07:18:23.444Z,93.90
2019-03-03T07:20:53.238Z,93.90
2019-03-03T07:23:23.367Z,93.70
2019-03-03T07:25:53.443Z,93.50
2019-03-03T07:28:23.355Z,93.30
2019-03-03T07:30:53.417Z,93.10
2019-03-03T07:33:25.259Z,92.80
2019-03-03T07:35:55.031Z,92.70
2019-03-03T07:38:24.811Z,92.40
2019-03-03T07:40:55.124Z,92.40
2019-03-03T07:43:24.900Z,92.20
2019-03-03T07:45:54.678Z,92.20
2019-03-03T07:48:25.315Z,91.90
2019-03-03T07:50:55.742Z,92.10
2019-03-03T07:53:26.157Z,91.60
2019-03-03T07:55:56.015Z,91.50
2019-03-03T07:58:25.804Z,91.00
2019-03-03T08:00:55.589Z,90.30
2019-03-03T08:03:25.317Z,90.30
2019-03-03T08:05:55.412Z,90.50
2019-03-03T08:08:25.183Z,90.60
2019-03-03T08:10:55.225Z,88.90
2019-03-03T08:13:25.219Z,88.20
2019-03-03T08:15:55.000Z,88.90
2019-03-03T08:18:25.629Z,88.40
2019-03-03T08:20:55.403Z,87.50
2019-03-03T08:23:25.179Z,88.10
2019-03-03T08:25:54.930Z,88.10
2019-03-03T08:28:25.119Z,89.00
2019-03-03T08:30:54.888Z,88.90
2019-03-03T08:33:24.635Z,88.60
2019-03-03T08:35:55.088Z,90.00
2019-03-03T08:38:24.865Z,90.40
2019-03-03T08:40:54.850Z,90.20
2019-03-03T08:43:26.514Z,90.40
2019-03-03T08:46:01.141Z,90.20
2019-03-03T08:48:41.488Z,89.80
2019-03-03T08:51:15.747Z,89.80
2019-03-03T08:54:03.233Z,90.30
2019-03-03T08:56:43.607Z,90.10
2019-03-03T08:59:21.036Z,90.60
2019-03-03T09:02:10.803Z,90.50
2019-03-03T09:04:45.435Z,90.80
2019-03-03T09:07:29.286Z,91.20
2019-03-03T09:10:12.538Z,91.00
2019-03-03T09:13:04.601Z,90.90
2019-03-03T09:15:39.000Z,91.50
2019-03-03T09:18:26.825Z,92.10
2019-03-03T09:21:04.034Z,92.50
2019-03-03T09:23:50.483Z,93.00
2019-03-03T09:26:21.903Z,93.30
2019-03-03T09:28:53.319Z,93.40
2019-03-03T09:31:30.271Z,93.70
2019-03-03T09:34:13.571Z,93.80
2019-03-03T09:36:47.924Z,94.20
2019-03-03T09:39:21.803Z,93.80
2019-03-03T09:41:56.707Z,94.20
2019-03-03T09:44:31.303Z,94.20
2019-03-03T09:47:02.760Z,94.00
2019-03-03T09:49:39.947Z,94.30
2019-03-03T09:52:27.529Z,94.70
2019-03-03T09:55:13.898Z,95.20
2019-03-03T09:57:57.587Z,95.00
2019-03-03T10:00:29.250Z,94.60
2019-03-03T10:03:07.422Z,94.50
2019-03-03T10:05:55.235Z,94.80
2019-03-03T10:08:36.025Z,94.90
2019-03-03T10:11:10.405Z,95.10
2019-03-03T10:13:50.975Z,95.50
2019-03-03T10:16:31.662Z,95.40
2019-03-03T10:19:07.127Z,95.20
2019-03-03T10:21:38.627Z,95.60
2019-03-03T10:24:26.519Z,96.10
2019-03-03T10:27:04.072Z,95.60
2019-03-03T10:29:51.999Z,96.30
2019-03-03T10:32:23.423Z,96.30
2019-03-03T10:34:57.262Z,96.20
2019-03-03T10:37:30.294Z,96.20
2019-03-03T10:40:01.642Z,96.00
2019-03-03T10:42:36.323Z,96.10
2019-03-03T10:45:16.098Z,96.00
2019-03-03T10:47:47.548Z,96.00
2019-03-03T10:50:18.960Z,96.50
2019-03-03T10:52:56.099Z,95.20
2019-03-03T10:55:30.159Z,95.50
2019-03-03T10:58:01.642Z,95.50
2019-03-03T11:00:49.330Z,95.40
2019-03-03T11:03:23.766Z,95.80
2019-03-03T11:05:58.221Z,96.00
2019-03-03T11:08:46.726Z,96.40
2019-03-03T11:11:23.987Z,96.30
2019-03-03T11:14:04.910Z,96.00
2019-03-03T11:16:36.363Z,95.90
2019-03-03T11:19:10.688Z,95.80
2019-03-03T11:21:50.914Z,95.70
2019-03-03T11:24:38.322Z,95.80
2019-03-03T11:27:28.192Z,95.00
2019-03-03T11:30:08.492Z,95.50
2019-03-03T11:32:39.931Z,95.70
2019-03-03T11:35:14.140Z,95.40
2019-03-03T11:38:02.020Z,95.00
2019-03-03T11:40:34.379Z,95.50
2019-03-03T11:43:24.112Z,95.10
2019-03-03T11:46:04.396Z,96.30
2019-03-03T11:48:35.746Z,95.60
2019-03-03T11:51:07.259Z,95.80
2019-03-03T11:53:38.802Z,95.50
2019-03-03T11:56:28.387Z,96.20
2019-03-03T11:59:11.599Z,95.90
2019-03-03T12:01:46.048Z,96.50
2019-03-03T12:04:33.858Z,95.90
2019-03-03T12:07:05.315Z,95.10
2019-03-03T12:09:39.960Z,94.90
2019-03-03T12:12:27.107Z,95.70
2019-03-03T12:14:58.527Z,94.20
2019-03-03T12:17:45.043Z,93.70
2019-03-03T12:20:16.804Z,94.10
2019-03-03T12:23:03.387Z,94.20
2019-03-03T12:25:51.003Z,94.50
2019-03-03T12:28:31.685Z,93.80
2019-03-03T12:31:08.843Z,94.00
2019-03-03T12:33:43.042Z,93.80
2019-03-03T12:36:17.186Z,93.60
2019-03-03T12:38:57.979Z,94.10
2019-03-03T12:41:32.087Z,93.90
2019-03-03T12:44:09.687Z,93.90
2019-03-03T12:46:41.158Z,94.20
2019-03-03T12:49:12.505Z,93.80
2019-03-03T12:51:58.783Z,93.90
2019-03-03T12:54:30.131Z,94.10
2019-03-03T12:57:07.087Z,94.00
2019-03-03T12:59:38.354Z,93.80
2019-03-03T13:02:25.773Z,94.00
2019-03-03T13:04:57.187Z,94.50
2019-03-03T13:07:28.768Z,94.40
2019-03-03T13:10:16.375Z,95.20
2019-03-03T13:13:03.999Z,95.10
2019-03-03T13:15:35.453Z,95.60
2019-03-03T13:18:06.972Z,96.00
2019-03-03T13:20:52.772Z,96.40
2019-03-03T13:23:43.392Z,96.80
2019-03-03T13:26:14.843Z,97.00
2019-03-03T13:29:02.343Z,97.90
2019-03-03T13:31:46.283Z,97.80
2019-03-03T13:34:33.873Z,98.30
2019-03-03T13:37:08.787Z,98.50
2019-03-03T13:39:40.151Z,99.00
2019-03-03T13:42:21.146Z,99.40
2019-03-03T13:44:50.968Z,99.60
2019-03-03T13:47:20.752Z,99.80
2019-03-03T13:49:50.569Z,99.90
2019-03-03T13:52:20.336Z,99.90
2019-03-03T13:54:50.114Z,99.90
2019-03-03T13:57:19.919Z,99.90
2019-03-03T13:59:49.716Z,99.90
2019-03-03T14:02:19.591Z,99.90
2019-03-03T14:04:49.323Z,99.90
2019-03-03T14:07:19.023Z,99.90
2019-03-03T14:09:48.969Z,99.90
2019-03-03T14:12:18.778Z,99.90
2019-03-03T14:14:48.899Z,99.90
2019-03-03T14:17:18.591Z,99.90
2019-03-03T14:19:48.401Z,99.90
2019-03-03T14:22:18.183Z,99.90
2019-03-03T14:24:50.164Z,99.90
2019-03-03T14:27:19.979Z,99.90
2019-03-03T14:29:49.615Z,99.90
2019-03-03T14:32:19.480Z,99.90
2019-03-03T14:34:49.458Z,99.90
2019-03-03T14:37:19.399Z,99.90
2019-03-03T14:39:49.384Z,99.90
2019-03-03T14:42:19.367Z,99.90
2019-03-03T14:44:49.206Z,99.90
2019-03-03T14:47:19.335Z,99.90
2019-03-03T14:49:49.159Z,99.90
2019-03-03T14:52:19.078Z,99.90
2019-03-03T14:54:49.222Z,99.90
2019-03-03T14:57:19.046Z,99.90
2019-03-03T14:59:48.955Z,99.90
2019-03-03T15:02:19.280Z,99.90
2019-03-03T15:04:49.160Z,99.90
2019-03-03T15:07:18.946Z,99.90
2019-03-03T15:09:48.735Z,99.90
2019-03-03T15:12:18.552Z,99.90
2019-03-03T15:14:48.671Z,99.90
2019-03-03T15:17:18.391Z,99.90
2019-03-03T15:19:48.194Z,99.90
2019-03-03T15:22:18.747Z,99.90
2019-03-03T15:24:48.685Z,99.90
2019-03-03T15:27:18.573Z,99.90
2019-03-03T15:29:48.367Z,99.90
2019-03-03T15:32:18.143Z,99.90
2019-03-03T15:34:47.891Z,99.90
2019-03-03T15:37:17.743Z,99.90
2019-03-03T15:39:47.547Z,99.90
2019-03-03T15:42:17.427Z,99.90
2019-03-03T15:44:47.234Z,99.90
2019-03-03T15:47:17.020Z,99.90
2019-03-03T15:49:46.755Z,99.90
2019-03-03T15:52:16.538Z,99.90
2019-03-03T15:54:46.324Z,99.90
2019-03-03T15:57:16.344Z,99.90
2019-03-03T15:59:46.127Z,99.90
2019-03-03T16:02:15.911Z,99.90
2019-03-03T16:04:45.729Z,99.90
2019-03-03T16:07:15.506Z,99.90
2019-03-03T16:09:45.330Z,99.90
2019-03-03T16:12:15.152Z,99.90
2019-03-03T16:14:44.935Z,99.90
2019-03-03T16:17:14.642Z,99.90
2019-03-03T16:19:44.603Z,99.90
2019-03-03T16:22:14.573Z,99.90
2019-03-03T16:24:44.481Z,99.90
2019-03-03T16:27:14.603Z,99.90
2019-03-03T16:29:44.389Z,99.90
2019-03-03T16:32:14.470Z,99.90
2019-03-03T16:34:44.349Z,99.90
2019-03-03T16:37:14.465Z,99.90
2019-03-03T16:39:44.246Z,99.90
2019-03-03T16:42:14.276Z,99.90
2019-03-03T16:44:44.223Z,99.90
2019-03-03T16:47:14.591Z,99.90
2019-03-03T16:49:44.603Z,99.90
2019-03-03T16:52:14.417Z,99.90
2019-03-03T16:54:44.273Z,99.90
2019-03-03T16:57:14.882Z,99.90
2019-03-03T16:59:44.655Z,99.90
2019-03-03T17:02:14.463Z,99.90
2019-03-03T17:04:44.278Z,99.90
2019-03-03T17:07:14.455Z,99.90
2019-03-03T17:09:44.246Z,99.90
2019-03-03T17:12:14.652Z,99.90
2019-03-03T17:14:44.350Z,99.90
2019-03-03T17:17:14.169Z,99.90
2019-03-03T17:19:44.439Z,99.90
2019-03-03T17:22:14.552Z,99.90
2019-03-03T17:24:44.478Z,99.90
2019-03-03T17:27:14.296Z,99.90
2019-03-03T17:29:44.175Z,99.90
2019-03-03T17:32:14.143Z,99.90
2019-03-03T17:34:44.191Z,99.90
2019-03-03T17:37:14.058Z,99.90
2019-03-03T17:39:44.129Z,99.90
2019-03-03T17:42:14.052Z,99.90
2019-03-03T17:44:44.115Z,99.90
2019-03-03T17:47:13.929Z,99.90
2019-03-03T17:49:43.883Z,99.90
2019-03-03T17:52:13.890Z,99.90
2019-03-03T17:54:44.068Z,99.80
2019-03-03T17:57:13.903Z,99.70
2019-03-03T17:59:43.810Z,99.60
2019-03-03T18:02:13.863Z,99.40
2019-03-03T18:04:43.765Z,99.10
2019-03-03T18:07:13.831Z,98.80
2019-03-03T18:09:43.648Z,98.80
2019-03-03T18:12:13.610Z,99.00
2019-03-03T18:14:43.708Z,98.50
2019-03-03T18:17:13.527Z,98.10
2019-03-03T18:19:44.478Z,96.70
2019-03-03T18:22:14.777Z,96.10
2019-03-03T18:24:44.559Z,96.10
2019-03-03T18:27:14.314Z,95.60
2019-03-03T18:29:44.025Z,95.00
2019-03-03T18:32:13.828Z,94.70
2019-03-03T18:34:43.881Z,94.70
2019-03-03T18:37:13.763Z,94.50
2019-03-03T18:39:43.719Z,94.80
2019-03-03T18:42:13.735Z,94.00
2019-03-03T18:44:43.812Z,93.90
2019-03-03T18:47:13.593Z,93.90
2019-03-03T18:49:43.411Z,92.80
2019-03-03T18:52:13.123Z,92.40
2019-03-03T18:54:42.903Z,92.50
2019-03-03T18:57:12.664Z,92.20
2019-03-03T18:59:43.251Z,92.70
2019-03-03T19:02:15.551Z,92.70
2019-03-03T19:04:45.863Z,93.10
2019-03-03T19:07:15.638Z,93.30
2019-03-03T19:09:45.419Z,93.50
2019-03-03T19:12:15.768Z,93.60
2019-03-03T19:14:45.478Z,93.80
2019-03-03T19:17:15.263Z,93.60
2019-03-03T19:19:45.747Z,93.00
2019-03-03T19:22:15.543Z,92.90
2019-03-03T19:24:45.465Z,92.10
2019-03-03T19:27:15.737Z,91.90
2019-03-03T19:29:45.527Z,91.10
2019-03-03T19:32:15.315Z,91.50
2019-03-03T19:34:45.211Z,91.30
2019-03-03T19:37:14.992Z,91.10
2019-03-03T19:39:45.799Z,91.40
2019-03-03T19:42:15.606Z,91.50
2019-03-03T19:44:45.417Z,92.10
2019-03-03T19:47:15.199Z,92.50
2019-03-03T19:49:44.949Z,92.60
2019-03-03T19:52:14.661Z,92.60
2019-03-03T19:54:44.438Z,92.20
2019-03-03T19:57:14.382Z,92.50
2019-03-03T19:59:45.180Z,92.20
2019-03-03T20:02:14.967Z,92.10
2019-03-03T20:04:45.273Z,91.50
2019-03-03T20:07:15.047Z,90.60
2019-03-03T20:09:44.831Z,90.90
2019-03-03T20:12:14.772Z,91.00
2019-03-03T20:14:44.872Z,91.60
2019-03-03T20:17:14.729Z,92.20
2019-03-03T20:19:44.407Z,92.10
2019-03-03T20:22:14.627Z,92.30
2019-03-03T20:24:44.509Z,92.20
2019-03-03T20:27:14.543Z,91.30
2019-03-03T20:29:44.636Z,91.60
2019-03-03T20:32:14.509Z,90.80
2019-03-03T20:34:44.344Z,90.40
2019-03-03T20:37:14.170Z,90.30
2019-03-03T20:39:44.231Z,90.00
2019-03-03T20:42:14.227Z,89.00
2019-03-03T20:44:44.217Z,89.10
2019-03-03T20:47:14.239Z,89.80
2019-03-03T20:49:44.960Z,88.60
2019-03-03T20:52:14.705Z,89.50
2019-03-03T20:54:45.179Z,89.20
2019-03-03T20:57:15.734Z,88.50
2019-03-03T20:59:45.584Z,88.80
2019-03-03T21:02:15.463Z,87.90
2019-03-03T21:04:45.320Z,88.40
2019-03-03T21:07:15.245Z,89.00
2019-03-03T21:09:45.204Z,88.50
2019-03-03T21:12:15.299Z,87.90
2019-03-03T21:14:46.013Z,87.40
2019-03-03T21:17:15.784Z,87.50
2019-03-03T21:19:45.454Z,87.50
2019-03-03T21:22:16.132Z,87.70
2019-03-03T21:24:46.592Z,87.80
2019-03-03T21:27:16.362Z,88.00
2019-03-03T21:29:46.139Z,87.80
2019-03-03T21:32:15.844Z,88.60
2019-03-03T21:34:45.823Z,89.90
2019-03-03T21:37:15.655Z,90.00
2019-03-03T21:39:45.604Z,90.50
2019-03-03T21:42:15.960Z,90.70
2019-03-03T21:44:45.672Z,90.60
2019-03-03T21:47:15.449Z,90.60
2019-03-03T21:49:45.114Z,90.80
2019-03-03T21:52:14.816Z,91.00
2019-03-03T21:54:46.885Z,91.00
2019-03-03T21:57:16.043Z,91.00
2019-03-03T21:59:45.811Z,90.90
2019-03-03T22:02:15.781Z,90.80
2019-03-03T22:04:46.431Z,91.00
2019-03-03T22:07:16.136Z,91.40
2019-03-03T22:09:45.872Z,91.80
2019-03-03T22:12:15.802Z,92.50
2019-03-03T22:14:45.712Z,93.10
2019-03-03T22:17:16.180Z,93.60
2019-03-03T22:19:45.960Z,94.40
2019-03-03T22:22:16.174Z,95.10
2019-03-03T22:24:46.373Z,94.60
2019-03-03T22:27:16.251Z,94.40
2019-03-03T22:29:46.374Z,94.50
2019-03-03T22:32:16.152Z,95.10
2019-03-03T22:34:46.306Z,95.50
2019-03-03T22:37:16.112Z,95.80
2019-03-03T22:39:46.323Z,95.50
2019-03-03T22:42:16.444Z,95.30
2019-03-03T22:44:46.115Z,95.60
2019-03-03T22:47:15.920Z,96.00
2019-03-03T22:49:45.939Z,96.20
2019-03-03T22:52:15.774Z,96.80
2019-03-03T22:54:45.895Z,96.80
2019-03-03T22:57:15.891Z,97.00
2019-03-03T22:59:45.602Z,97.20
2019-03-03T23:02:16.597Z,97.30
2019-03-03T23:05:04.470Z,97.50
2019-03-03T23:07:40.478Z,97.70
2019-03-03T23:10:19.146Z,97.40
2019-03-03T23:12:55.800Z,97.60
2019-03-03T23:15:31.834Z,97.90
2019-03-03T23:18:19.560Z,97.70
2019-03-03T23:21:07.035Z,98.00
2019-03-03T23:23:45.707Z,97.70
2019-03-03T23:26:16.854Z,97.50
2019-03-03T23:28:46.802Z,97.60
2019-03-03T23:31:16.583Z,97.40
2019-03-03T23:33:46.455Z,97.60
2019-03-03T23:36:16.387Z,98.00
2019-03-03T23:38:46.162Z,97.60
2019-03-03T23:41:15.898Z,98.10
2019-03-03T23:43:45.534Z,98.40
2019-03-03T23:46:15.663Z,98.60
2019-03-03T23:48:46.090Z,98.00
2019-03-03T23:51:16.067Z,98.40
2019-03-03T23:53:45.899Z,98.80
2019-03-03T23:56:15.917Z,98.60
2019-03-03T23:58:45.795Z,98.70
